TimeCST,TemperatureF,Dew PointF,Humidity,Sea Level PressureIn,VisibilityMPH,Wind Direction,Wind SpeedMPH,Gust SpeedMPH,PrecipitationIn,Events,Conditions,WindDirDegrees,DateUTC
12:15 AM,26.6,15.8,64,30.27,10.0,North,10.4,16.1,N/A,,Mostly Cloudy,360,2013-02-15 06:15:00
12:35 AM,24.8,12.2,59,30.28,10.0,North,13.8,18.4,N/A,,Mostly Cloudy,350,2013-02-15 06:35:00
12:55 AM,24.8,10.4,54,30.29,10.0,North,12.7,20.7,N/A,,Scattered Clouds,350,2013-02-15 06:55:00
1:15 AM,23.0,10.4,59,30.29,10.0,North,9.2,-,N/A,,Scattered Clouds,350,2013-02-15 07:15:00
1:35 AM,21.2,10.4,63,30.30,10.0,North,8.1,-,N/A,,Scattered Clouds,350,2013-02-15 07:35:00
1:55 AM,21.2,12.2,68,30.30,10.0,NNW,6.9,-,N/A,,Scattered Clouds,340,2013-02-15 07:55:00
2:15 AM,21.2,12.2,68,30.31,10.0,NNW,8.1,-,N/A,,Scattered Clouds,340,2013-02-15 08:15:00
2:35 AM,21.2,12.2,68,30.32,10.0,NW,5.8,-,N/A,,Scattered Clouds,320,2013-02-15 08:35:00
2:55 AM,21.2,12.2,68,30.32,10.0,NNW,4.6,-,N/A,,Scattered Clouds,340,2013-02-15 08:55:00
3:15 AM,19.4,12.2,74,30.33,10.0,NW,4.6,-,N/A,,Scattered Clouds,320,2013-02-15 09:15:00
3:35 AM,19.4,10.4,68,30.33,10.0,NNW,6.9,-,N/A,,Scattered Clouds,330,2013-02-15 09:35:00
3:55 AM,19.4,10.4,68,30.33,10.0,WNW,3.5,-,N/A,,Scattered Clouds,290,2013-02-15 09:55:00
4:15 AM,19.4,10.4,68,30.33,10.0,Calm,Calm,-,N/A,,Scattered Clouds,0,2013-02-15 10:15:00
4:35 AM,17.6,10.4,73,30.34,10.0,SW,3.5,-,N/A,,Scattered Clouds,230,2013-02-15 10:35:00
4:55 AM,17.6,10.4,73,30.34,10.0,Calm,Calm,-,N/A,,Scattered Clouds,0,2013-02-15 10:55:00
5:15 AM,17.6,8.6,68,30.34,10.0,Calm,Calm,-,N/A,,Scattered Clouds,0,2013-02-15 11:15:00
5:35 AM,17.6,8.6,68,30.35,10.0,Calm,Calm,-,N/A,,Scattered Clouds,0,2013-02-15 11:35:00
6:15 AM,15.8,8.6,73,30.35,10.0,Calm,Calm,-,N/A,,Scattered Clouds,0,2013-02-15 12:15:00
6:35 AM,15.8,8.6,73,30.36,10.0,West,3.5,-,N/A,,Scattered Clouds,270,2013-02-15 12:35:00
6:55 AM,15.8,8.6,73,30.36,10.0,Calm,Calm,-,N/A,,Scattered Clouds,0,2013-02-15 12:55:00
7:15 AM,15.8,8.6,73,30.36,10.0,SW,3.5,-,N/A,,Clear,230,2013-02-15 13:15:00
7:35 AM,15.8,8.6,73,30.37,10.0,SW,3.5,-,N/A,,Clear,230,2013-02-15 13:35:00
7:55 AM,17.6,10.4,73,30.37,10.0,Calm,Calm,-,N/A,,Clear,0,2013-02-15 13:55:00
8:15 AM,17.6,10.4,73,30.38,10.0,SW,3.5,-,N/A,,Scattered Clouds,220,2013-02-15 14:15:00
8:35 AM,19.4,12.2,74,30.38,10.0,WNW,5.8,-,N/A,,Mostly Cloudy,290,2013-02-15 14:35:00
8:55 AM,19.4,12.2,74,30.39,10.0,WNW,4.6,-,N/A,,Overcast,290,2013-02-15 14:55:00
9:15 AM,19.4,12.2,74,30.39,10.0,West,4.6,-,N/A,,Overcast,280,2013-02-15 15:15:00
9:35 AM,21.2,12.2,68,30.38,10.0,WNW,4.6,-,N/A,,Overcast,290,2013-02-15 15:35:00
9:55 AM,23.0,14.0,68,30.38,10.0,West,3.5,-,N/A,,Scattered Clouds,280,2013-02-15 15:55:00
10:15 AM,24.8,14.0,64,30.37,10.0,WNW,8.1,-,N/A,,Clear,290,2013-02-15 16:15:00
10:35 AM,26.6,15.8,64,30.37,10.0,WNW,9.2,-,N/A,,Clear,290,2013-02-15 16:35:00
11:15 AM,28.4,12.2,51,30.37,10.0,NW,9.2,-,N/A,,Scattered Clouds,320,2013-02-15 17:15:00
11:55 AM,30.2,12.2,47,30.36,10.0,NNW,13.8,17.3,N/A,,Clear,340,2013-02-15 17:55:00
12:15 PM,30.2,12.2,47,30.36,10.0,North,13.8,17.3,N/A,,Scattered Clouds,350,2013-02-15 18:15:00
12:35 PM,30.2,12.2,47,30.35,10.0,North,13.8,18.4,N/A,,Scattered Clouds,360,2013-02-15 18:35:00
12:55 PM,33.8,12.2,41,30.34,10.0,North,13.8,18.4,N/A,,Scattered Clouds,350,2013-02-15 18:55:00
1:15 PM,32.0,12.2,44,30.34,10.0,North,12.7,17.3,N/A,,Scattered Clouds,360,2013-02-15 19:15:00
1:35 PM,33.8,12.2,41,30.33,10.0,North,12.7,-,N/A,,Scattered Clouds,350,2013-02-15 19:35:00
1:55 PM,33.8,12.2,41,30.32,10.0,North,9.2,-,N/A,,Mostly Cloudy,350,2013-02-15 19:55:00
2:15 PM,32.0,10.4,41,30.32,10.0,NW,6.9,-,N/A,,Scattered Clouds,310,2013-02-15 20:15:00
2:35 PM,32.0,12.2,44,30.32,10.0,NW,8.1,16.1,N/A,,Scattered Clouds,320,2013-02-15 20:35:00
2:55 PM,32.0,10.4,41,30.32,10.0,NW,8.1,-,N/A,,Scattered Clouds,310,2013-02-15 20:55:00
3:15 PM,33.8,8.6,35,30.32,10.0,NW,5.8,-,N/A,,Scattered Clouds,320,2013-02-15 21:15:00
3:35 PM,32.0,10.4,41,30.32,10.0,NNW,6.9,-,N/A,,Mostly Cloudy,340,2013-02-15 21:35:00
3:55 PM,32.0,12.2,44,30.32,10.0,North,5.8,-,N/A,,Mostly Cloudy,10,2013-02-15 21:55:00
4:15 PM,32.0,12.2,44,30.31,10.0,NNE,6.9,-,N/A,,Overcast,30,2013-02-15 22:15:00
4:35 PM,30.2,14.0,51,30.32,10.0,North,5.8,-,N/A,,Overcast,10,2013-02-15 22:35:00
4:55 PM,30.2,12.2,47,30.31,10.0,NE,3.5,-,N/A,,Overcast,50,2013-02-15 22:55:00
5:15 PM,30.2,12.2,47,30.31,10.0,NE,4.6,-,N/A,,Overcast,50,2013-02-15 23:15:00
5:35 PM,30.2,14.0,51,30.31,10.0,NNE,6.9,-,N/A,,Mostly Cloudy,30,2013-02-15 23:35:00
5:55 PM,28.4,17.6,64,30.31,10.0,NNE,8.1,-,N/A,,Overcast,30,2013-02-15 23:55:00
6:15 PM,28.4,17.6,64,30.31,10.0,NE,8.1,-,N/A,,Mostly Cloudy,40,2013-02-16 00:15:00
6:35 PM,26.6,17.6,69,30.31,10.0,NE,8.1,-,N/A,,Mostly Cloudy,40,2013-02-16 00:35:00
6:55 PM,26.6,17.6,69,30.31,10.0,NE,6.9,-,N/A,,Mostly Cloudy,40,2013-02-16 00:55:00
7:15 PM,28.4,19.4,69,30.32,10.0,NNE,8.1,-,N/A,,Mostly Cloudy,20,2013-02-16 01:15:00
7:35 PM,28.4,17.6,64,30.32,10.0,NNE,8.1,-,N/A,,Overcast,30,2013-02-16 01:35:00
7:55 PM,28.4,17.6,64,30.32,10.0,NNE,8.1,-,N/A,,Overcast,20,2013-02-16 01:55:00
8:15 PM,28.4,19.4,69,30.33,10.0,North,5.8,-,N/A,,Overcast,10,2013-02-16 02:15:00
8:35 PM,26.6,19.4,74,30.34,10.0,NNE,8.1,-,N/A,,Overcast,20,2013-02-16 02:35:00
8:55 PM,26.6,19.4,74,30.34,10.0,NNE,6.9,-,N/A,,Overcast,20,2013-02-16 02:55:00
9:15 PM,26.6,19.4,74,30.34,10.0,NNE,9.2,-,N/A,,Overcast,30,2013-02-16 03:15:00
9:35 PM,26.6,19.4,74,30.34,10.0,NNE,9.2,-,N/A,,Overcast,20,2013-02-16 03:35:00
9:55 PM,24.8,17.6,74,30.34,10.0,NNE,8.1,-,N/A,,Overcast,20,2013-02-16 03:55:00
10:15 PM,24.8,17.6,74,30.35,10.0,North,6.9,-,N/A,,Mostly Cloudy,10,2013-02-16 04:15:00
10:35 PM,21.2,15.8,80,30.35,10.0,North,4.6,-,N/A,,Scattered Clouds,10,2013-02-16 04:35:00
10:55 PM,21.2,15.8,80,30.35,10.0,North,5.8,-,N/A,,Scattered Clouds,10,2013-02-16 04:55:00
11:15 PM,19.4,14.0,80,30.35,10.0,North,3.5,-,N/A,,Scattered Clouds,350,2013-02-16 05:15:00
11:35 PM,19.4,15.8,86,30.35,10.0,North,4.6,-,N/A,,Scattered Clouds,10,2013-02-16 05:35:00
11:55 PM,19.4,14.0,80,30.35,10.0,Calm,Calm,-,N/A,,Mostly Cloudy,0,2013-02-16 05:55:00